Terminal Aerodrome Forecast
Issued by NWS Grand Forks, ND

Home | Current Version | Previous Version | Text Only | Print | Product List | Glossary On
Versions: 1 2 3 4 5 6 7 8 9 10 11 12 13 14 15 16 17 18 19 20 21 22 23 24 25
247
FTUS43 KFGF 290520
TAFFAR
TAF
KFAR 290520Z 2906/3006 09006KT P6SM BKN200
     FM290700 13007KT P6SM BKN200
     FM291600 15011KT P6SM SCT250=

USA.gov is the U.S. government's official web portal to all federal, state and local government web resources and services.